Time;durP1;ratioP1;P1;durP2;ratioP2;P2;SDS_P1;SDS_P2;PMS_P1;PMS_P2;Temp;Humidity;BMP_temperature;BMP_pressure;BME280_temperature;BME280_humidity;BME280_pressure;Samples;Min_cycle;Max_cycle;Signal;HPM_P1;HPM_P2
2023/08/06 00:01:09;;;;;;;7.00;6.40;;;;;;;21.81;100.00;98300.14;109422;1253;73356;-68
2023/08/06 00:03:36;;;;;;;7.60;7.00;;;;;;;21.78;100.00;98298.73;109508;1253;66300;-68
2023/08/06 00:06:07;;;;;;;7.20;6.40;;;;;;;21.75;100.00;98297.66;109377;1252;71445;-68
2023/08/06 00:08:34;;;;;;;7.60;6.90;;;;;;;21.71;100.00;98299.34;109484;1252;61562;-68
2023/08/06 00:11:02;;;;;;;7.30;6.80;;;;;;;21.67;100.00;98299.00;109444;1253;58866;-68
2023/08/06 00:13:29;;;;;;;7.70;7.20;;;;;;;21.62;100.00;98295.59;109395;1254;75154;-67
2023/08/06 00:16:08;;;;;;;6.90;6.30;;;;;;;21.58;100.00;98292.23;109403;1254;66302;-68
2023/08/06 00:18:36;;;;;;;8.70;7.30;;;;;;;21.55;100.00;98293.80;109456;1254;73346;-67
2023/08/06 00:21:03;;;;;;;8.00;7.30;;;;;;;21.53;100.00;98289.79;109374;1257;60389;-68
2023/08/06 00:23:30;;;;;;;7.50;6.90;;;;;;;21.52;100.00;98287.63;109366;1254;58842;-68
2023/08/06 00:25:58;;;;;;;7.70;6.90;;;;;;;21.52;100.00;98288.01;109420;1252;73361;-68
2023/08/06 00:28:25;;;;;;;6.70;6.20;;;;;;;21.52;100.00;98289.73;109459;1254;68101;-68
2023/08/06 00:30:54;;;;;;;7.20;6.40;;;;;;;21.52;100.00;98290.50;109437;1253;71446;-68
2023/08/06 00:33:22;;;;;;;7.30;6.60;;;;;;;21.53;100.00;98287.52;109431;1254;61719;-67
2023/08/06 00:35:49;;;;;;;8.00;7.20;;;;;;;21.55;100.00;98284.59;109383;1254;59447;-67
2023/08/06 00:38:17;;;;;;;8.20;6.70;;;;;;;21.58;100.00;98282.44;109390;1253;73643;-67
2023/08/06 00:40:44;;;;;;;7.50;6.90;;;;;;;21.61;100.00;98280.43;109252;1254;68119;-68
2023/08/06 00:43:11;;;;;;;7.40;6.70;;;;;;;21.63;100.00;98280.87;109394;1255;71392;-68
2023/08/06 00:45:39;;;;;;;7.50;6.70;;;;;;;21.65;100.00;98284.13;109476;1252;60079;-68
2023/08/06 00:48:07;;;;;;;6.90;6.30;;;;;;;21.66;100.00;98284.66;109490;1254;60627;-67
2023/08/06 00:50:34;;;;;;;7.10;6.60;;;;;;;21.66;100.00;98279.64;109430;1253;74666;-67
2023/08/06 00:53:02;;;;;;;7.30;6.70;;;;;;;21.66;100.00;98275.51;109429;1253;68378;-68
2023/08/06 00:55:29;;;;;;;7.30;6.80;;;;;;;21.66;100.00;98270.81;109231;1254;71453;-67
2023/08/06 00:57:57;;;;;;;6.50;6.00;;;;;;;21.66;100.00;98271.62;109444;1254;60440;-67
2023/08/06 01:00:24;;;;;;;7.00;6.30;;;;;;;21.67;100.00;98271.77;109128;1259;62273;-67
2023/08/06 01:02:53;;;;;;;7.10;6.40;;;;;;;21.66;100.00;98271.57;109381;1254;75176;-68
2023/08/06 01:05:21;;;;;;;6.90;6.20;;;;;;;21.65;100.00;98265.50;109301;1253;67765;-68
2023/08/06 01:08:20;;;;;;;7.90;7.10;;;;;;;21.65;100.00;98258.63;109399;1253;72680;-68
2023/08/06 01:11:14;;;;;;;7.00;6.40;;;;;;;21.65;100.00;98259.77;109389;1254;60777;-67
2023/08/06 01:13:46;;;;;;;7.40;6.70;;;;;;;21.63;100.00;98257.27;109425;1253;59050;-67
2023/08/06 01:16:17;;;;;;;7.90;7.30;;;;;;;21.61;100.00;98259.06;109386;1255;74457;-67
2023/08/06 01:18:48;;;;;;;7.60;6.80;;;;;;;21.60;100.00;98256.40;109500;1253;67825;-67
2023/08/06 01:21:17;;;;;;;7.00;6.50;;;;;;;21.59;100.00;98256.46;109449;1254;72653;-68
2023/08/06 01:23:45;;;;;;;6.50;5.90;;;;;;;21.59;100.00;98253.64;109394;1254;60385;-68
2023/08/06 01:26:24;;;;;;;7.40;6.80;;;;;;;21.59;100.00;98249.86;109366;1254;59996;-67
2023/08/06 01:29:33;;;;;;;6.90;6.30;;;;;;;21.59;100.00;98245.14;109400;1253;74597;-67
2023/08/06 01:32:00;;;;;;;8.60;6.50;;;;;;;21.59;100.00;98240.50;109015;1257;67825;-68
2023/08/06 01:34:30;;;;;;;7.20;6.70;;;;;;;21.60;100.00;98236.82;108982;1258;72710;-67
2023/08/06 01:36:57;;;;;;;6.50;5.90;;;;;;;21.61;100.00;98232.00;109019;1253;60389;-67
2023/08/06 01:39:25;;;;;;;7.10;6.50;;;;;;;21.60;100.00;98233.19;109441;1253;60746;-67
2023/08/06 01:41:52;;;;;;;7.60;6.90;;;;;;;21.61;100.00;98230.90;109355;1252;74607;-67
2023/08/06 01:44:20;;;;;;;6.50;5.80;;;;;;;21.63;100.00;98232.48;109478;1253;66303;-68
2023/08/06 01:46:48;;;;;;;7.20;6.50;;;;;;;21.62;100.00;98230.74;109383;1254;72701;-68
2023/08/06 01:49:15;;;;;;;7.70;7.10;;;;;;;21.62;100.00;98230.75;109347;1254;60514;-68
2023/08/06 01:51:42;;;;;;;8.30;6.90;;;;;;;21.61;100.00;98226.00;109386;1254;60126;-68
2023/08/06 01:54:10;;;;;;;7.30;6.80;;;;;;;21.62;100.00;98225.55;109449;1254;74931;-68
2023/08/06 01:56:38;;;;;;;6.90;6.40;;;;;;;21.62;100.00;98225.60;109422;1254;67571;-68
2023/08/06 01:59:05;;;;;;;6.60;6.10;;;;;;;21.62;100.00;98225.66;109276;1253;73279;-67
2023/08/06 02:01:32;;;;;;;7.20;6.50;;;;;;;21.64;100.00;98223.93;109377;1254;61874;-68
2023/08/06 02:04:00;;;;;;;6.80;6.20;;;;;;;21.63;100.00;98222.37;109386;1253;60073;-68
2023/08/06 02:06:28;;;;;;;7.50;6.90;;;;;;;21.62;100.00;98218.58;109392;1253;72694;-67
2023/08/06 02:08:56;;;;;;;7.60;7.10;;;;;;;21.60;100.00;98216.58;109441;1254;67883;-67
2023/08/06 02:11:23;;;;;;;6.90;6.30;;;;;;;21.60;100.00;98215.27;109363;1253;72450;-68
2023/08/06 02:13:50;;;;;;;7.90;7.20;;;;;;;21.58;100.00;98210.23;109435;1253;60549;-68
2023/08/06 02:16:18;;;;;;;7.10;6.60;;;;;;;21.55;100.00;98214.68;109367;1253;59781;-68
2023/08/06 02:18:46;;;;;;;8.30;7.60;;;;;;;21.52;100.00;98215.16;109434;1253;74673;-68
2023/08/06 02:21:13;;;;;;;8.70;8.00;;;;;;;21.50;100.00;98212.78;109422;1253;67603;-68
2023/08/06 02:35:36;;;;;;;8.10;7.50;;;;;;;21.66;100.00;98203.53;103210;1289;613492;-68
2023/08/06 02:38:04;;;;;;;9.20;8.40;;;;;;;21.61;100.00;98200.61;104333;1270;105421;-68
2023/08/06 02:40:31;;;;;;;8.30;7.70;;;;;;;21.53;100.00;98198.23;104553;1271;59961;-66
2023/08/06 02:42:59;;;;;;;8.40;7.70;;;;;;;21.47;100.00;98196.38;104629;1271;72194;-67
2023/08/06 02:45:26;;;;;;;9.30;7.90;;;;;;;21.43;100.00;98200.02;104677;1271;67558;-66
2023/08/06 02:47:54;;;;;;;10.20;8.00;;;;;;;21.40;100.00;98196.23;104431;1270;72714;-66
2023/08/06 02:50:21;;;;;;;8.80;8.20;;;;;;;21.37;100.00;98201.85;104498;1270;60484;-67
2023/08/06 02:52:49;;;;;;;8.50;7.70;;;;;;;21.35;100.00;98200.01;104504;1266;60066;-69
2023/08/06 02:55:16;;;;;;;8.50;7.80;;;;;;;21.32;100.00;98194.39;104419;1272;73899;-66
2023/08/06 02:57:45;;;;;;;9.30;8.40;;;;;;;21.31;100.00;98195.30;104632;1272;66034;-66
2023/08/06 03:00:13;;;;;;;9.90;8.80;;;;;;;21.28;100.00;98192.16;104575;1269;71278;-68
2023/08/06 03:02:40;;;;;;;8.80;8.00;;;;;;;21.26;100.00;98194.05;104590;1270;61825;-70
2023/08/06 03:05:28;;;;;;;8.80;8.10;;;;;;;21.23;100.00;98192.75;104466;1267;60035;-68
2023/08/06 03:07:56;;;;;;;9.30;8.40;;;;;;;21.21;100.00;98192.60;104684;1272;71128;-68
2023/08/06 03:10:25;;;;;;;9.10;8.40;;;;;;;21.19;100.00;98194.54;104684;1267;66990;-69
2023/08/06 03:12:54;;;;;;;11.00;10.00;;;;;;;21.18;100.00;98194.81;104824;1267;71500;-67
2023/08/06 03:15:22;;;;;;;9.00;8.30;;;;;;;21.17;100.00;98197.84;104778;1272;60481;-67
2023/08/06 03:17:50;;;;;;;9.50;8.70;;;;;;;21.17;100.00;98190.20;104791;1268;60377;-67
2023/08/06 03:20:19;;;;;;;9.50;8.80;;;;;;;21.19;100.00;98189.07;104713;1269;73050;-67
2023/08/06 03:22:47;;;;;;;9.40;8.50;;;;;;;21.21;100.00;98194.60;104904;1264;65947;-67
2023/08/06 03:25:15;;;;;;;9.10;8.30;;;;;;;21.24;100.00;98192.05;105339;1262;71845;-68
2023/08/06 03:27:45;;;;;;;10.70;9.00;;;;;;;21.27;100.00;98186.75;105330;1258;60743;-68
2023/08/06 03:30:13;;;;;;;9.10;8.30;;;;;;;21.32;100.00;98183.78;105182;1262;59643;-69
2023/08/06 03:32:40;;;;;;;9.90;8.90;;;;;;;21.38;100.00;98181.19;105124;1263;73054;-68
2023/08/06 03:35:08;;;;;;;10.10;9.10;;;;;;;21.45;100.00;98178.80;105241;1259;66439;-68
2023/08/06 03:37:35;;;;;;;8.90;8.20;;;;;;;21.51;100.00;98180.31;105221;1259;72655;-68
2023/08/06 03:40:03;;;;;;;10.20;8.70;;;;;;;21.59;100.00;98172.59;105109;1257;60860;-68
2023/08/06 03:42:32;;;;;;;10.30;9.40;;;;;;;21.69;100.00;98170.12;105216;1262;59547;-68
2023/08/06 03:44:59;;;;;;;8.60;7.90;;;;;;;21.80;100.00;98174.06;105095;1262;71361;-68
2023/08/06 03:47:28;;;;;;;9.60;8.80;;;;;;;21.92;100.00;98169.20;105169;1257;66823;-68
2023/08/06 03:49:56;;;;;;;10.10;9.30;;;;;;;22.05;100.00;98166.29;105363;1257;71474;-68
2023/08/06 03:52:23;;;;;;;11.10;9.50;;;;;;;22.16;100.00;98158.67;105218;1257;61715;-68
2023/08/06 03:54:50;;;;;;;9.60;8.70;;;;;;;22.28;100.00;98150.81;105205;1257;59729;-68
2023/08/06 03:57:18;;;;;;;9.60;8.80;;;;;;;22.39;100.00;98143.95;105179;1263;71053;-67
2023/08/06 03:59:45;;;;;;;9.00;8.20;;;;;;;22.49;100.00;98142.21;105191;1261;66845;-68
2023/08/06 04:02:22;;;;;;;9.50;8.80;;;;;;;22.58;100.00;98137.89;105205;1260;71915;-69
2023/08/06 04:04:53;;;;;;;9.50;8.80;;;;;;;22.67;100.00;98136.30;105153;1262;60384;-67
2023/08/06 04:07:21;;;;;;;10.10;9.30;;;;;;;22.76;100.00;98135.20;105246;1257;59549;-67
2023/08/06 04:09:53;;;;;;;10.50;9.60;;;;;;;22.86;100.00;98128.69;105253;1257;73027;-68
2023/08/06 04:12:21;;;;;;;10.20;9.40;;;;;;;22.97;100.00;98122.43;105253;1260;66278;-67
2023/08/06 04:14:50;;;;;;;9.60;8.80;;;;;;;23.08;100.00;98116.06;105216;1262;72703;-68
2023/08/06 04:17:21;;;;;;;9.70;8.80;;;;;;;23.18;100.00;98115.75;105204;1262;61243;-67
2023/08/06 04:19:50;;;;;;;9.20;8.30;;;;;;;23.24;100.00;98112.84;105171;1260;59535;-68
2023/08/06 04:22:18;;;;;;;8.70;8.10;;;;;;;23.28;100.00;98109.05;105207;1263;72746;-68
2023/08/06 04:24:46;;;;;;;9.40;8.70;;;;;;;23.33;100.00;98104.34;105132;1262;67783;-68
2023/08/06 04:27:14;;;;;;;9.30;8.60;;;;;;;23.38;100.00;98105.41;105091;1262;72750;-68
2023/08/06 04:29:42;;;;;;;9.20;8.50;;;;;;;23.41;100.00;98103.17;105268;1257;61289;-68
2023/08/06 04:32:10;;;;;;;9.30;8.50;;;;;;;23.45;100.00;98098.45;105220;1257;59542;-69
2023/08/06 04:34:39;;;;;;;10.50;9.60;;;;;;;23.56;100.00;98098.51;105328;1257;71847;-69
2023/08/06 04:37:07;;;;;;;9.60;8.80;;;;;;;23.68;100.00;98095.61;105186;1262;66221;-68
2023/08/06 04:39:34;;;;;;;10.20;9.30;;;;;;;23.78;100.00;98090.84;105212;1258;70824;-69
2023/08/06 04:42:03;;;;;;;9.50;8.70;;;;;;;23.88;100.00;98085.25;105261;1261;60814;-69
2023/08/06 04:44:31;;;;;;;9.70;8.70;;;;;;;23.99;100.00;98085.74;105207;1261;59608;-68
2023/08/06 04:46:59;;;;;;;10.30;9.20;;;;;;;24.17;100.00;98083.34;105227;1261;73572;-68
2023/08/06 04:49:26;;;;;;;9.30;8.60;;;;;;;24.34;100.00;98079.09;105200;1262;66874;-68
2023/08/06 04:51:53;;;;;;;10.40;9.40;;;;;;;24.46;100.00;98077.67;105166;1262;71450;-68
2023/08/06 04:54:21;;;;;;;10.30;9.30;;;;;;;24.59;100.00;98074.34;105136;1269;60708;-67
2023/08/06 04:56:49;;;;;;;10.30;9.10;;;;;;;24.71;100.00;98067.25;105231;1257;60099;-68
2023/08/06 04:59:16;;;;;;;10.10;9.10;;;;;;;24.87;100.00;98064.14;105209;1260;72133;-69
2023/08/06 05:01:43;;;;;;;9.70;8.90;;;;;;;25.05;100.00;98057.38;105319;1260;67586;-69
2023/08/06 05:04:11;;;;;;;10.90;9.00;;;;;;;25.25;100.00;98056.05;105234;1262;71454;-69
2023/08/06 05:06:38;;;;;;;13.20;9.30;;;;;;;25.44;100.00;98044.94;105216;1257;59727;-68
2023/08/06 05:09:06;;;;;;;10.00;9.10;;;;;;;25.59;100.00;98046.02;105210;1260;59997;-68
2023/08/06 05:11:33;;;;;;;10.00;9.30;;;;;;;25.68;100.00;98037.36;105415;1258;71784;-68
2023/08/06 05:14:01;;;;;;;9.10;8.40;;;;;;;25.78;100.00;98036.79;105362;1260;66367;-68
2023/08/06 05:16:28;;;;;;;9.40;8.50;;;;;;;25.87;100.00;98031.60;105231;1260;72679;-69
2023/08/06 05:18:56;;;;;;;9.90;9.20;;;;;;;26.00;100.00;98026.31;105226;1260;60517;-69
2023/08/06 05:21:23;;;;;;;10.20;9.30;;;;;;;26.16;100.00;98024.73;109227;1257;60027;-67
2023/08/06 05:23:50;;;;;;;14.40;9.00;;;;;;;26.33;100.00;98017.55;109180;1256;73535;-66
2023/08/06 05:26:19;;;;;;;10.10;9.10;;;;;;;26.55;100.00;98013.98;109206;1257;66905;-67
2023/08/06 05:28:46;;;;;;;10.10;9.20;;;;;;;26.76;100.00;98014.69;109160;1256;71111;-68
2023/08/06 05:31:14;;;;;;;9.70;8.90;;;;;;;26.83;100.00;98017.91;109227;1255;60093;-67
2023/08/06 05:33:41;;;;;;;9.60;8.80;;;;;;;26.90;100.00;98014.19;109224;1257;60121;-68
2023/08/06 05:36:09;;;;;;;9.10;8.30;;;;;;;26.94;100.00;98011.84;109220;1254;73075;-67
2023/08/06 05:38:36;;;;;;;10.40;9.00;;;;;;;26.94;100.00;98012.77;109191;1254;67628;-68
2023/08/06 05:41:03;;;;;;;10.20;9.20;;;;;;;26.95;100.00;98011.02;109227;1257;72661;-68
2023/08/06 05:43:31;;;;;;;10.80;9.00;;;;;;;27.01;100.00;98010.53;109171;1257;60179;-68
2023/08/06 05:45:58;;;;;;;9.20;8.40;;;;;;;27.10;100.00;98007.79;109247;1254;58717;-70
2023/08/06 05:48:27;;;;;;;9.30;8.40;;;;;;;27.22;100.00;98010.05;109184;1254;73094;-68
2023/08/06 05:50:55;;;;;;;9.70;8.80;;;;;;;27.33;100.00;98000.95;109223;1254;66308;-68
2023/08/06 05:53:22;;;;;;;9.00;8.30;;;;;;;27.44;100.00;97999.81;109170;1258;71418;-67
2023/08/06 05:55:50;;;;;;;9.30;8.60;;;;;;;27.53;100.00;97987.29;109229;1254;60089;-67
2023/08/06 05:58:19;;;;;;;11.60;8.40;;;;;;;27.73;100.00;97986.65;109203;1254;58455;-68
2023/08/06 06:00:47;;;;;;;9.30;8.40;;;;;;;27.98;100.00;97981.77;109175;1254;73189;-67
2023/08/06 06:03:14;;;;;;;8.90;8.20;;;;;;;28.18;100.00;97973.68;109163;1254;66441;-67
2023/08/06 06:05:41;;;;;;;9.10;8.40;;;;;;;28.32;100.00;97971.71;109226;1254;72637;-68
2023/08/06 06:08:09;;;;;;;8.60;7.40;;;;;;;28.49;100.00;97968.35;109167;1257;58821;-67
2023/08/06 06:10:36;;;;;;;8.80;8.00;;;;;;;28.62;100.00;97963.40;109161;1254;58806;-67
2023/08/06 06:13:04;;;;;;;9.20;8.40;;;;;;;28.64;100.00;97955.40;109211;1253;71786;-67
2023/08/06 06:15:33;;;;;;;8.30;7.50;;;;;;;28.69;100.00;97953.27;109262;1254;67635;-67
2023/08/06 06:18:00;;;;;;;9.60;8.20;;;;;;;28.74;100.00;97951.34;109140;1256;72730;-67
2023/08/06 06:20:28;;;;;;;8.90;8.00;;;;;;;28.75;100.00;97945.79;109269;1256;59012;-68
2023/08/06 06:22:55;;;;;;;8.40;7.80;;;;;;;28.87;100.00;97944.19;109213;1254;62350;-67
2023/08/06 06:25:23;;;;;;;8.10;7.40;;;;;;;29.02;100.00;97941.80;109250;1254;71834;-68
2023/08/06 06:27:50;;;;;;;8.50;7.70;;;;;;;29.21;100.00;97931.77;109226;1254;66632;-67
2023/08/06 06:30:17;;;;;;;8.30;7.70;;;;;;;29.39;100.00;97935.15;109227;1254;72661;-67
2023/08/06 06:32:45;;;;;;;8.20;7.40;;;;;;;29.52;100.00;97930.35;109261;1254;58767;-67
2023/08/06 06:35:12;;;;;;;8.10;7.30;;;;;;;29.59;100.00;97929.18;109239;1254;58802;-67
2023/08/06 06:37:39;;;;;;;8.10;7.40;;;;;;;29.68;100.00;97924.68;109252;1256;73101;-67
2023/08/06 06:40:07;;;;;;;8.30;7.50;;;;;;;29.83;100.00;97924.35;109203;1254;67602;-68
2023/08/06 06:42:34;;;;;;;7.90;6.70;;;;;;;29.99;100.00;97925.98;109258;1254;72821;-68
2023/08/06 06:45:05;;;;;;;7.70;7.00;;;;;;;30.12;100.00;97919.98;109094;1254;62171;-68
2023/08/06 06:47:33;;;;;;;7.80;7.10;;;;;;;30.20;100.00;97917.39;109196;1254;58768;-67
2023/08/06 06:50:00;;;;;;;8.40;7.70;;;;;;;30.23;100.00;97917.16;109209;1254;75864;-67
2023/08/06 06:52:29;;;;;;;7.30;6.40;;;;;;;30.25;100.00;97917.80;109255;1257;67915;-67
2023/08/06 06:54:56;;;;;;;7.30;6.60;;;;;;;30.34;100.00;97914.48;109195;1254;72668;-67
2023/08/06 06:57:24;;;;;;;6.90;6.20;;;;;;;30.50;100.00;97919.95;109203;1255;58828;-67
2023/08/06 06:59:51;;;;;;;7.10;6.50;;;;;;;30.62;100.00;97922.10;109189;1256;60075;-67
2023/08/06 07:02:18;;;;;;;7.40;6.80;;;;;;;30.65;100.00;97919.13;109197;1255;73857;-67
2023/08/06 07:04:46;;;;;;;8.20;7.50;;;;;;;30.77;100.00;97914.64;109214;1254;66302;-68
2023/08/06 07:07:13;;;;;;;8.80;7.20;;;;;;;30.82;100.00;97911.42;109131;1257;72680;-67
2023/08/06 07:09:41;;;;;;;7.90;7.10;;;;;;;30.79;100.00;97912.73;109190;1254;60072;-67
2023/08/06 07:12:08;;;;;;;8.80;7.30;;;;;;;30.70;100.00;97910.45;109260;1256;59358;-67
2023/08/06 07:14:35;;;;;;;7.40;6.80;;;;;;;30.61;99.72;97909.04;109221;1254;72628;-68
2023/08/06 07:17:03;;;;;;;7.60;6.90;;;;;;;30.48;100.00;97909.20;109238;1254;68130;-67
2023/08/06 07:19:31;;;;;;;7.90;7.20;;;;;;;30.50;100.00;97901.13;109168;1255;71129;-67
2023/08/06 07:21:58;;;;;;;8.50;7.70;;;;;;;30.61;100.00;97899.56;109181;1257;58309;-67
2023/08/06 07:24:25;;;;;;;8.10;7.40;;;;;;;30.72;100.00;97890.68;109151;1254;60192;-67
2023/08/06 07:26:53;;;;;;;8.10;7.20;;;;;;;30.85;100.00;97888.80;109187;1256;73056;-67
2023/08/06 07:29:22;;;;;;;7.10;6.50;;;;;;;31.04;100.00;97887.98;109241;1254;66085;-67
2023/08/06 07:31:50;;;;;;;7.60;7.00;;;;;;;31.07;99.08;97885.20;109186;1254;72770;-67
2023/08/06 07:34:18;;;;;;;12.80;8.00;;;;;;;31.00;99.98;97877.73;109202;1254;59647;-67
2023/08/06 07:36:45;;;;;;;7.50;6.80;;;;;;;31.02;100.00;97875.21;109217;1254;58744;-67
2023/08/06 07:39:13;;;;;;;8.60;7.70;;;;;;;31.13;100.00;97878.47;109263;1254;73824;-67
2023/08/06 07:41:41;;;;;;;8.60;7.20;;;;;;;31.15;100.00;97872.82;109233;1257;68388;-67
2023/08/06 07:44:08;;;;;;;8.70;7.60;;;;;;;31.14;100.00;97878.98;109182;1254;71907;-67
2023/08/06 07:46:36;;;;;;;8.40;7.70;;;;;;;31.09;100.00;97863.83;109165;1256;60079;-66
2023/08/06 07:49:03;;;;;;;8.30;7.50;;;;;;;31.17;100.00;97867.54;109214;1254;60052;-66
2023/08/06 07:51:31;;;;;;;11.80;7.40;;;;;;;31.21;100.00;97866.48;109206;1254;73892;-67
2023/08/06 07:53:58;;;;;;;7.80;7.00;;;;;;;31.12;100.00;97867.01;109246;1256;67570;-67
2023/08/06 07:56:25;;;;;;;8.50;7.70;;;;;;;31.10;100.00;97861.30;109157;1256;71553;-66
2023/08/06 07:58:53;;;;;;;8.50;7.90;;;;;;;31.20;100.00;97852.80;109217;1256;58808;-67
2023/08/06 08:01:20;;;;;;;8.20;7.40;;;;;;;31.31;99.90;97847.77;109206;1255;58733;-67
2023/08/06 08:03:48;;;;;;;9.20;8.40;;;;;;;31.38;99.55;97857.39;109286;1254;73864;-67
2023/08/06 08:06:15;;;;;;;8.10;7.40;;;;;;;31.30;98.61;97848.10;109199;1256;67589;-67
2023/08/06 08:08:43;;;;;;;8.20;7.40;;;;;;;31.22;99.82;97847.37;109188;1254;71387;-67
2023/08/06 08:11:11;;;;;;;12.70;8.00;;;;;;;31.27;100.00;97840.70;109223;1256;60031;-67
2023/08/06 08:13:38;;;;;;;10.30;8.10;;;;;;;31.40;99.41;97844.83;109213;1254;58387;-67
2023/08/06 08:16:06;;;;;;;8.50;7.70;;;;;;;31.42;98.96;97836.70;109157;1253;72657;-67
2023/08/06 08:18:33;;;;;;;7.90;7.20;;;;;;;31.48;100.00;97825.31;109246;1255;67573;-67
2023/08/06 08:21:01;;;;;;;8.10;7.30;;;;;;;31.72;99.84;97824.10;109169;1254;73002;-67
2023/08/06 08:23:28;;;;;;;8.70;7.20;;;;;;;31.98;95.72;97832.73;109237;1256;60010;-67
2023/08/06 08:25:55;;;;;;;8.40;6.60;;;;;;;32.01;93.16;97817.44;109200;1256;59961;-67
2023/08/06 08:28:23;;;;;;;7.40;6.70;;;;;;;31.96;92.68;97807.73;109233;1256;72700;-67
2023/08/06 08:30:50;;;;;;;13.80;7.20;;;;;;;31.91;95.28;97811.93;109209;1257;66440;-67
2023/08/06 08:33:18;;;;;;;7.50;6.80;;;;;;;31.97;94.06;97813.73;109225;1254;71808;-67
2023/08/06 08:35:45;;;;;;;7.60;6.90;;;;;;;31.97;93.10;97806.82;109237;1256;60046;-66
2023/08/06 08:38:13;;;;;;;7.80;7.10;;;;;;;31.95;94.77;97801.13;109188;1256;60130;-67
2023/08/06 08:40:45;;;;;;;8.60;7.80;;;;;;;32.02;94.75;97802.98;109222;1256;73874;-69
2023/08/06 08:43:13;;;;;;;7.80;7.20;;;;;;;32.08;94.55;97786.98;109137;1256;67681;-67
2023/08/06 08:45:41;;;;;;;7.30;6.70;;;;;;;32.13;96.51;97787.11;109079;1256;72462;-66
2023/08/06 08:48:11;;;;;;;7.30;6.70;;;;;;;32.22;96.92;97775.02;109138;1257;58708;-67
2023/08/06 08:50:38;;;;;;;7.20;6.20;;;;;;;32.39;95.81;97769.34;109022;1256;58918;-67
2023/08/06 08:53:06;;;;;;;6.90;6.30;;;;;;;32.57;95.00;97771.65;109205;1256;72720;-67
2023/08/06 08:55:33;;;;;;;7.30;6.40;;;;;;;32.68;90.92;97766.52;109263;1256;68391;-68
2023/08/06 08:58:01;;;;;;;7.10;6.50;;;;;;;32.70;92.29;97762.80;109146;1257;73234;-68
2023/08/06 09:00:28;;;;;;;7.00;6.30;;;;;;;32.73;90.32;97761.69;109181;1256;60046;-67
2023/08/06 09:02:55;;;;;;;6.80;6.20;;;;;;;32.70;88.41;97755.09;109146;1257;60044;-67
2023/08/06 09:05:23;;;;;;;6.50;6.00;;;;;;;32.68;88.08;97754.71;109265;1256;74415;-67
2023/08/06 09:07:50;;;;;;;6.80;6.20;;;;;;;32.65;86.79;97751.58;109227;1256;67748;-68
2023/08/06 09:10:18;;;;;;;7.00;6.30;;;;;;;32.63;87.81;97740.11;109179;1255;73615;-67
2023/08/06 09:12:46;;;;;;;6.40;5.80;;;;;;;32.65;88.93;97729.94;109053;1256;58849;-67
2023/08/06 09:15:13;;;;;;;7.50;6.70;;;;;;;32.74;88.61;97730.95;109092;1256;58816;-67
2023/08/06 09:17:40;;;;;;;7.70;5.90;;;;;;;32.79;88.43;97734.30;109221;1256;74401;-68
2023/08/06 09:20:12;;;;;;;6.40;5.90;;;;;;;32.89;89.60;97723.53;109197;1256;67762;-67
2023/08/06 09:22:39;;;;;;;6.60;6.00;;;;;;;33.14;88.93;97722.56;109240;1256;71691;-67
2023/08/06 09:25:09;;;;;;;7.60;6.40;;;;;;;33.32;83.70;97722.64;109138;1256;59182;-68
2023/08/06 09:27:37;;;;;;;8.80;5.70;;;;;;;33.33;83.62;97714.97;109302;1256;60123;-67
2023/08/06 09:30:06;;;;;;;6.90;5.70;;;;;;;33.40;82.58;97711.80;109159;1257;73854;-68
2023/08/06 09:32:52;;;;;;;5.90;5.40;;;;;;;33.49;80.20;97715.93;109134;1256;66300;-68
2023/08/06 09:35:20;;;;;;;6.50;5.90;;;;;;;33.59;80.06;97715.83;109167;1255;71962;-68
2023/08/06 09:37:47;;;;;;;7.90;5.10;;;;;;;33.64;75.35;97715.57;109176;1256;60717;-69
2023/08/06 09:40:42;;;;;;;6.40;5.20;;;;;;;33.63;72.75;97719.56;109167;1256;58777;-67
2023/08/06 09:43:09;;;;;;;6.40;5.30;;;;;;;33.60;74.30;97705.64;109185;1256;74309;-68
2023/08/06 09:45:37;;;;;;;10.20;6.30;;;;;;;33.68;74.20;97703.90;109040;1255;67619;-68
2023/08/06 09:48:09;;;;;;;6.40;5.20;;;;;;;33.85;73.67;97691.87;109175;1255;73463;-67
2023/08/06 09:50:37;;;;;;;10.60;5.90;;;;;;;34.00;71.26;97691.62;109178;1256;58810;-68
2023/08/06 09:53:06;;;;;;;7.00;5.40;;;;;;;34.09;71.90;97692.92;109170;1256;58782;-68
2023/08/06 09:55:33;;;;;;;7.60;5.50;;;;;;;34.22;71.93;97677.45;109178;1256;74005;-67
2023/08/06 09:58:01;;;;;;;5.70;5.10;;;;;;;34.40;71.10;97675.09;109189;1256;67902;-68
2023/08/06 10:00:29;;;;;;;8.50;5.70;;;;;;;34.58;69.19;97666.98;109168;1256;72658;-68
2023/08/06 10:02:59;;;;;;;6.10;4.90;;;;;;;34.75;68.03;97657.63;109121;1254;60096;-68
2023/08/06 10:05:27;;;;;;;7.90;5.60;;;;;;;34.92;66.68;97669.15;109204;1254;58241;-68
2023/08/06 10:07:55;;;;;;;9.60;5.20;;;;;;;34.96;64.09;97652.15;109080;1256;73881;-68
2023/08/06 10:10:23;;;;;;;8.40;5.30;;;;;;;34.93;62.64;97650.06;109108;1256;66445;-68
2023/08/06 10:12:52;;;;;;;7.30;5.20;;;;;;;34.89;65.27;97636.27;109126;1255;74237;-68
2023/08/06 10:15:22;;;;;;;7.60;5.70;;;;;;;35.01;65.42;97647.25;109027;1255;58792;-68
2023/08/06 10:17:50;;;;;;;5.20;4.80;;;;;;;35.01;64.80;97641.33;109141;1256;58822;-69
2023/08/06 10:20:19;;;;;;;7.70;5.00;;;;;;;35.01;65.93;97636.77;109117;1255;74548;-68
2023/08/06 10:22:47;;;;;;;6.30;4.60;;;;;;;34.99;67.18;97630.56;109182;1256;67587;-68
2023/08/06 10:25:17;;;;;;;6.00;4.80;;;;;;;34.59;66.79;97643.54;109024;1255;74751;-68
2023/08/06 10:27:47;;;;;;;5.40;4.90;;;;;;;33.91;68.38;97631.02;109168;1256;60074;-67
2023/08/06 10:30:42;;;;;;;9.00;5.00;;;;;;;33.50;72.65;97643.97;109231;1256;58764;-68
2023/08/06 10:33:09;;;;;;;8.90;4.90;;;;;;;33.22;67.12;97660.48;109180;1256;74340;-68
2023/08/06 10:35:44;;;;;;;10.50;5.20;;;;;;;32.91;68.56;97636.57;109043;1255;68045;-68
2023/08/06 10:38:22;;;;;;;9.50;5.40;;;;;;;32.75;70.79;97640.98;109197;1256;71475;-68
2023/08/06 10:40:52;;;;;;;11.40;5.60;;;;;;;32.70;69.84;97641.35;109168;1256;58833;-68
2023/08/06 10:43:37;;;;;;;13.00;5.50;;;;;;;32.61;70.41;97644.36;109071;1255;61083;-67
2023/08/06 10:46:22;;;;;;;6.20;5.10;;;;;;;32.45;72.19;97623.97;109121;1256;73867;-67
2023/08/06 10:48:49;;;;;;;12.00;5.10;;;;;;;32.34;76.49;97621.74;109177;1256;66829;-68
2023/08/06 10:51:17;;;;;;;8.40;5.30;;;;;;;32.31;78.43;97612.73;109167;1256;73373;-67
2023/08/06 10:53:45;;;;;;;7.90;5.30;;;;;;;32.32;77.03;97620.36;109204;1256;60107;-68
2023/08/06 10:56:14;;;;;;;12.70;5.40;;;;;;;32.28;76.15;97626.08;109195;1256;60022;-68
2023/08/06 10:58:42;;;;;;;8.00;5.50;;;;;;;32.21;75.07;97615.77;109190;1255;73855;-69
2023/08/06 11:01:10;;;;;;;10.40;5.60;;;;;;;32.12;75.90;97607.14;109275;1256;66771;-67
2023/08/06 11:03:38;;;;;;;7.10;5.50;;;;;;;32.07;76.49;97612.11;109303;1254;73591;-69
2023/08/06 11:06:09;;;;;;;6.00;5.30;;;;;;;32.04;77.32;97598.70;109243;1254;58750;-67
2023/08/06 11:08:38;;;;;;;10.40;5.30;;;;;;;32.01;77.93;97612.27;109172;1256;58779;-72
2023/08/06 11:11:13;;;;;;;9.30;5.10;;;;;;;31.99;80.65;97580.86;109343;1254;72996;-70
2023/08/06 11:13:51;;;;;;;7.80;4.40;;;;;;;32.03;82.45;97573.27;109349;1254;67746;-67
2023/08/06 11:16:19;;;;;;;6.80;5.30;;;;;;;32.09;84.43;97573.20;109211;1254;72689;-69
2023/08/06 11:18:47;;;;;;;6.70;4.80;;;;;;;32.15;82.93;97574.05;109113;1256;58806;-68
2023/08/06 11:21:15;;;;;;;9.50;5.40;;;;;;;32.17;81.14;97561.53;109270;1254;59000;-70
2023/08/06 11:23:42;;;;;;;8.00;5.10;;;;;;;32.16;81.59;97572.73;109108;1253;73860;-69
2023/08/06 11:26:09;;;;;;;6.80;4.80;;;;;;;32.15;79.23;97583.56;109275;1253;66479;-69
2023/08/06 11:28:37;;;;;;;6.60;5.70;;;;;;;32.10;74.77;97579.05;109223;1256;73071;-71
2023/08/06 11:31:04;;;;;;;10.60;5.50;;;;;;;32.03;76.23;97569.60;109282;1254;59818;-69
2023/08/06 11:33:31;;;;;;;7.50;4.70;;;;;;;31.99;78.96;97569.79;109261;1254;58770;-68
2023/08/06 11:35:59;;;;;;;9.00;5.40;;;;;;;31.99;78.54;97561.13;109323;1254;72806;-68
2023/08/06 11:38:30;;;;;;;5.80;4.50;;;;;;;31.97;78.99;97563.29;109305;1253;68978;-72